createdAt,value
2023-12-10T00:00:24.238Z,7.78
2023-12-10T00:02:51.479Z,7.78
2023-12-10T00:05:18.749Z,7.77
2023-12-10T00:07:46.041Z,7.79
2023-12-10T00:10:13.439Z,7.80
2023-12-10T00:12:41.440Z,7.80
2023-12-10T00:15:09.870Z,7.80
2023-12-10T00:17:37.071Z,7.81
2023-12-10T00:20:04.714Z,7.80
2023-12-10T00:22:32.185Z,7.80
2023-12-10T00:24:59.369Z,7.79
2023-12-10T00:27:26.471Z,7.79
2023-12-10T00:29:53.982Z,7.80
2023-12-10T00:32:21.109Z,7.79
2023-12-10T00:34:48.302Z,7.80
2023-12-10T00:37:15.444Z,7.79
2023-12-10T00:39:42.572Z,7.78
2023-12-10T00:42:09.763Z,7.77
2023-12-10T00:44:37.072Z,7.77
2023-12-10T00:47:04.262Z,7.79
2023-12-10T00:49:31.347Z,7.79
2023-12-10T00:51:58.434Z,7.81
2023-12-10T00:54:26.263Z,7.81
2023-12-10T00:56:53.307Z,7.83
2023-12-10T00:59:20.359Z,7.83
2023-12-10T01:01:47.447Z,7.84
2023-12-10T01:04:15.701Z,7.84
2023-12-10T01:06:42.806Z,7.84
2023-12-10T01:09:10.017Z,7.86
2023-12-10T01:11:37.080Z,7.88
2023-12-10T01:14:04.732Z,7.89
2023-12-10T01:16:31.734Z,7.90
2023-12-10T01:18:58.904Z,7.91
2023-12-10T01:21:26.086Z,7.92
2023-12-10T01:23:55.813Z,7.94
2023-12-10T01:26:23.565Z,7.96
2023-12-10T01:28:50.763Z,7.99
2023-12-10T01:31:18.408Z,7.99
2023-12-10T01:33:45.686Z,8.00
2023-12-10T01:36:27.313Z,8.01
2023-12-10T01:38:54.437Z,8.02
2023-12-10T01:41:21.476Z,8.03
2023-12-10T01:43:48.545Z,8.03
2023-12-10T01:46:15.573Z,8.03
2023-12-10T01:48:44.776Z,8.03
2023-12-10T01:51:12.617Z,8.04
2023-12-10T01:53:41.597Z,8.03
2023-12-10T01:56:10.540Z,8.04
2023-12-10T01:58:40.086Z,8.04
2023-12-10T02:01:07.393Z,8.05
2023-12-10T02:03:35.141Z,8.04
2023-12-10T02:06:03.652Z,8.05
2023-12-10T02:08:31.417Z,8.05
2023-12-10T02:10:59.240Z,8.05
2023-12-10T02:13:27.162Z,8.05
2023-12-10T02:15:54.702Z,8.05
2023-12-10T02:18:22.063Z,8.05
2023-12-10T02:20:50.723Z,8.04
2023-12-10T02:23:28.046Z,8.03
2023-12-10T02:25:55.153Z,8.02
2023-12-10T02:28:23.578Z,8.01
2023-12-10T02:30:51.072Z,8.01
2023-12-10T02:33:18.423Z,8.01
2023-12-10T02:35:45.485Z,7.99
2023-12-10T02:38:12.541Z,7.99
2023-12-10T02:40:39.534Z,7.99
2023-12-10T02:43:06.944Z,7.98
2023-12-10T02:45:34.016Z,7.99
2023-12-10T02:48:01.192Z,7.99
2023-12-10T02:50:28.254Z,7.98
2023-12-10T02:52:55.307Z,7.98
2023-12-10T02:55:22.327Z,7.96
2023-12-10T02:57:49.467Z,7.89
2023-12-10T03:00:17.452Z,7.83
2023-12-10T03:02:44.769Z,7.74
2023-12-10T03:05:11.878Z,7.65
2023-12-10T03:07:38.902Z,7.56
2023-12-10T03:10:06.601Z,7.46
2023-12-10T03:12:33.993Z,7.38
2023-12-10T03:15:01.875Z,7.30
2023-12-10T03:17:29.135Z,7.23
2023-12-10T03:19:56.172Z,7.17
2023-12-10T03:22:23.166Z,7.10
2023-12-10T03:24:50.283Z,7.06
2023-12-10T03:27:17.585Z,7.01
2023-12-10T03:29:44.583Z,6.97
2023-12-10T03:32:11.605Z,6.94
2023-12-10T03:34:38.744Z,6.90
2023-12-10T03:37:05.835Z,6.88
2023-12-10T03:39:32.904Z,6.86
2023-12-10T03:42:00.055Z,6.86
2023-12-10T03:44:27.100Z,6.85
2023-12-10T03:46:54.096Z,6.85
2023-12-10T03:49:21.164Z,6.85
2023-12-10T03:51:48.258Z,6.84
2023-12-10T03:54:15.315Z,6.83
2023-12-10T03:56:42.555Z,6.85
2023-12-10T03:59:09.589Z,6.85
2023-12-10T04:01:36.601Z,6.83
2023-12-10T04:04:04.007Z,6.83
2023-12-10T04:06:31.170Z,6.83
2023-12-10T04:08:58.144Z,6.85
2023-12-10T04:11:25.611Z,6.84
2023-12-10T04:13:52.690Z,6.82
2023-12-10T04:16:32.880Z,6.83
2023-12-10T04:18:59.959Z,6.84
2023-12-10T04:21:27.118Z,6.83
2023-12-10T04:23:54.150Z,6.83
2023-12-10T04:26:21.472Z,6.83
2023-12-10T04:28:48.934Z,6.84
2023-12-10T04:31:16.417Z,6.83
2023-12-10T04:33:45.765Z,6.83
2023-12-10T04:36:13.942Z,6.85
2023-12-10T04:38:41.378Z,6.85
2023-12-10T04:41:08.536Z,6.87
2023-12-10T04:43:35.581Z,6.86
2023-12-10T04:46:02.581Z,6.88
2023-12-10T04:48:29.648Z,6.90
2023-12-10T04:50:56.744Z,6.90
2023-12-10T04:53:23.730Z,6.93
2023-12-10T04:55:50.784Z,6.96
2023-12-10T04:58:17.780Z,6.98
2023-12-10T05:00:45.305Z,7.01
2023-12-10T05:03:12.509Z,7.03
2023-12-10T05:05:39.716Z,7.04
2023-12-10T05:08:07.347Z,7.06
2023-12-10T05:10:34.382Z,7.09
2023-12-10T05:13:01.702Z,7.09
2023-12-10T05:15:28.953Z,7.10
2023-12-10T05:17:56.239Z,7.12
2023-12-10T05:20:23.302Z,7.12
2023-12-10T05:22:50.551Z,7.14
2023-12-10T05:25:17.549Z,7.14
2023-12-10T05:27:44.677Z,7.15
2023-12-10T05:30:12.935Z,7.15
2023-12-10T05:32:40.169Z,7.14
2023-12-10T05:35:07.405Z,7.14
2023-12-10T05:37:34.364Z,7.13
2023-12-10T05:40:01.611Z,7.10
2023-12-10T05:42:29.490Z,7.09
2023-12-10T05:44:56.765Z,7.10
2023-12-10T05:47:24.045Z,7.08
2023-12-10T05:49:51.085Z,7.07
2023-12-10T05:52:18.237Z,7.07
2023-12-10T05:54:45.291Z,7.06
2023-12-10T05:57:12.301Z,7.05
2023-12-10T05:59:39.276Z,7.05
2023-12-10T06:02:06.288Z,7.04
2023-12-10T06:04:33.478Z,7.03
2023-12-10T06:07:00.688Z,7.04
2023-12-10T06:09:27.954Z,7.04
2023-12-10T06:11:54.968Z,7.04
2023-12-10T06:14:22.042Z,7.05
2023-12-10T06:16:49.016Z,7.05
2023-12-10T06:19:16.164Z,7.06
2023-12-10T06:21:43.272Z,7.06
2023-12-10T06:24:10.323Z,7.07
2023-12-10T06:26:37.327Z,7.08
2023-12-10T06:29:04.706Z,7.09
2023-12-10T06:31:31.831Z,7.11
2023-12-10T06:33:58.892Z,7.12
2023-12-10T06:36:25.954Z,7.14
2023-12-10T06:38:52.963Z,7.13
2023-12-10T06:41:19.966Z,7.14
2023-12-10T06:43:47.640Z,7.14
2023-12-10T06:46:18.335Z,7.14
2023-12-10T06:48:45.904Z,7.13
2023-12-10T06:51:13.118Z,7.13
2023-12-10T06:53:41.221Z,7.13
2023-12-10T06:56:09.596Z,7.12
2023-12-10T06:58:36.661Z,7.13
2023-12-10T07:01:04.972Z,7.12
2023-12-10T07:03:32.077Z,7.11
2023-12-10T07:06:00.357Z,7.10
2023-12-10T07:08:27.539Z,7.10
2023-12-10T07:10:54.605Z,7.09
2023-12-10T07:13:21.680Z,7.09
2023-12-10T07:15:48.770Z,7.08
2023-12-10T07:18:16.131Z,7.07
2023-12-10T07:20:43.316Z,7.07
2023-12-10T07:23:11.112Z,7.05
2023-12-10T07:25:38.120Z,7.04
2023-12-10T07:28:05.183Z,7.04
2023-12-10T07:30:32.232Z,7.03
2023-12-10T07:32:59.276Z,7.04
2023-12-10T07:35:26.286Z,7.06
2023-12-10T07:37:53.297Z,7.05
2023-12-10T07:40:20.963Z,7.07
2023-12-10T07:42:47.995Z,7.08
2023-12-10T07:45:15.064Z,7.08
2023-12-10T07:47:42.259Z,7.09
2023-12-10T07:50:09.642Z,7.10
2023-12-10T07:52:36.700Z,7.11
2023-12-10T07:55:04.010Z,7.14
2023-12-10T07:57:31.297Z,7.16
2023-12-10T07:59:58.310Z,7.20
2023-12-10T08:02:25.361Z,7.23
2023-12-10T08:04:52.546Z,7.26
2023-12-10T08:07:19.540Z,7.29
2023-12-10T08:09:47.079Z,7.33
2023-12-10T08:12:14.112Z,7.35
2023-12-10T08:14:41.128Z,7.39
2023-12-10T08:17:08.130Z,7.42
2023-12-10T08:19:35.737Z,7.46
2023-12-10T08:22:03.014Z,7.50
2023-12-10T08:24:30.312Z,7.52
2023-12-10T08:26:57.362Z,7.55
2023-12-10T08:29:24.405Z,7.58
2023-12-10T08:31:51.478Z,7.60
2023-12-10T08:34:18.570Z,7.63
2023-12-10T08:36:45.712Z,7.64
2023-12-10T08:39:13.768Z,7.67
2023-12-10T08:41:40.883Z,7.70
2023-12-10T08:44:07.937Z,7.72
2023-12-10T08:46:34.973Z,7.74
2023-12-10T08:49:02.140Z,7.76
2023-12-10T08:51:29.513Z,7.77
2023-12-10T08:53:56.778Z,7.80
2023-12-10T08:56:24.457Z,7.81
2023-12-10T08:58:51.471Z,7.84
2023-12-10T09:01:18.512Z,7.85
2023-12-10T09:03:46.469Z,7.85
2023-12-10T09:06:14.049Z,7.87
2023-12-10T09:08:41.506Z,7.88
2023-12-10T09:11:08.505Z,7.90
2023-12-10T09:13:38.331Z,7.91
2023-12-10T09:16:07.441Z,7.92
2023-12-10T09:18:34.629Z,7.95
2023-12-10T09:21:02.489Z,7.96
2023-12-10T09:23:29.497Z,7.98
2023-12-10T09:25:56.482Z,8.00
2023-12-10T09:28:23.973Z,8.01
2023-12-10T09:30:51.029Z,8.03
2023-12-10T09:33:18.688Z,8.06
2023-12-10T09:35:45.930Z,8.08
2023-12-10T09:38:13.603Z,8.11
2023-12-10T09:40:40.605Z,8.12
2023-12-10T09:43:07.801Z,8.14
2023-12-10T09:45:35.091Z,8.16
2023-12-10T09:48:03.648Z,8.19
2023-12-10T09:50:33.577Z,8.21
2023-12-10T09:53:00.560Z,8.22
2023-12-10T09:55:27.635Z,8.26
2023-12-10T09:57:54.631Z,8.27
2023-12-10T10:00:22.259Z,8.27
2023-12-10T10:02:49.256Z,8.28
2023-12-10T10:05:17.393Z,8.31
2023-12-10T10:07:44.479Z,8.30
2023-12-10T10:10:14.437Z,8.32
2023-12-10T10:12:44.239Z,8.32
